No particular awareness of the weather is required.    There are no Weather-warnings


Meteo18 Weather Cam more information Meteo18 Weather Cam


Thunder radar more information blitzortung!


Rain radar more information rain snow radar


Visit our other weather sites:

Template documentation
and downloads

And another site



Weather Underground History page Text

Daily Summary for August 22, 2017 Units:  English    Metric   Both
« Previous Day
Next Day »
Daily Weekly Monthly Yearly Custom
  High: Low: Average:
Temperature: 86.5 °F 58.1 °F 73.2 °F
Dew Point: 62.2 °F 55 °F 59 °F
Humidity: 90 % 41 % 64 %
Wind Speed: 12 mph 0 mph 1.9 mph
Wind Gust: 13 mph - -
Wind:- - SE
Pressure: 30.2 in 30 in -
Precipitation: 0 in    
Historical Graphs
 
 
Tabular Data for August 22, 2017
Time Temperature Dew Point Pressure Wind Wind Speed Wind Gust Humidity Rainfall Rate (Hourly)
00:02 65.8 °F 58.8 °F 30.2 in Calm   3 mph 78 % 0 in
00:12 65.5 °F 58.5 °F 30.2 in Calm   2 mph 78 % 0 in
00:17 65.1 °F 58.5 °F 30.2 in Calm   2 mph 79 % 0 in
00:22 64.9 °F 58.3 °F 30.2 in North 1 mph 2 mph 79 % 0 in
00:27 64.9 °F 58.3 °F 30.2 in Calm   2 mph 79 % 0 in
00:32 64.8 °F 58.1 °F 30.2 in Calm   2 mph 79 % 0 in
00:42 64.2 °F 57.9 °F 30.2 in Calm   1 mph 80 % 0 in
00:52 64.2 °F 57.9 °F 30.2 in Calm   1 mph 80 % 0 in
01:02 63.9 °F 57.9 °F 30.2 in Calm   1 mph 81 % 0 in
01:12 63.7 °F 58.1 °F 30.2 in Calm     82 % 0 in
01:17 63.3 °F 57.7 °F 30.2 in Calm     82 % 0 in
01:22 63.1 °F 57.9 °F 30.2 in Calm     83 % 0 in
01:32 63.7 °F 58.1 °F 30.2 in NW 1 mph   82 % 0 in
01:37 63.7 °F 58.1 °F 30.2 in Calm   1 mph 82 % 0 in
01:42 63.7 °F 58.1 °F 30.2 in Calm   1 mph 82 % 0 in
01:52 63.7 °F 57.7 °F 30.2 in Calm   1 mph 81 % 0 in
02:02 62.8 °F 57.6 °F 30.2 in Calm   1 mph 83 % 0 in
02:12 62.6 °F 57.7 °F 30.2 in WNW 1 mph 2 mph 84 % 0 in
02:17 62.4 °F 57.6 °F 30.2 in Calm   2 mph 84 % 0 in
02:22 62.4 °F 57.6 °F 30.2 in Calm   2 mph 84 % 0 in
02:32 62.6 °F 57.7 °F 30.2 in Calm   1 mph 84 % 0 in
02:37 62.6 °F 57.4 °F 30.2 in North 1 mph 1 mph 83 % 0 in
02:42 62.4 °F 57.2 °F 30.2 in Calm   1 mph 83 % 0 in
02:52 62.6 °F 57.4 °F 30.2 in Calm   1 mph 83 % 0 in
02:57 62.4 °F 57.2 °F 30.2 in Calm   1 mph 83 % 0 in
03:02 62.2 °F 57.4 °F 30.2 in Calm   1 mph 84 % 0 in
03:07 62.2 °F 57.7 °F 30.2 in Calm   1 mph 85 % 0 in
03:12 62.4 °F 57.6 °F 30.2 in Calm   1 mph 84 % 0 in
03:17 62.6 °F 57.4 °F 30.2 in Calm   1 mph 83 % 0 in
03:27 62.1 °F 57.2 °F 30.2 in WNW 1 mph 2 mph 84 % 0 in
03:32 62.1 °F 57.2 °F 30.2 in WNW 1 mph 2 mph 84 % 0 in
03:42 61.3 °F 57.2 °F 30.2 in WNW 1 mph 2 mph 86 % 0 in
03:47 61.5 °F 57.4 °F 30.2 in WNW 1 mph 2 mph 86 % 0 in
03:52 62.1 °F 57.6 °F 30.2 in Calm   2 mph 85 % 0 in
04:02 61 °F 56.8 °F 30.2 in WNW 2 mph 2 mph 86 % 0 in
04:07 60.8 °F 56.8 °F 30.2 in Calm   2 mph 87 % 0 in
04:12 61.2 °F 57 °F 30.2 in Calm   2 mph 86 % 0 in
04:22 60.6 °F 56.7 °F 30.2 in Calm   2 mph 87 % 0 in
04:32 60.6 °F 56.7 °F 30.1 in Calm     87 % 0 in
04:42 61 °F 56.5 °F 30.1 in Calm     85 % 0 in
04:47 60.4 °F 56.3 °F 30.1 in Calm     86 % 0 in
04:52 60.1 °F 56.5 °F 30.1 in Calm     88 % 0 in
05:02 59.7 °F 56.1 °F 30.1 in Calm     88 % 0 in
05:22 60.3 °F 56.1 °F 30.1 in Calm   1 mph 86 % 0 in
05:32 59.7 °F 55.8 °F 30.1 in Calm   1 mph 87 % 0 in
05:42 59.5 °F 55.9 °F 30.1 in North 1 mph 1 mph 88 % 0 in
05:47 59.5 °F 55.6 °F 30.1 in Calm   2 mph 87 % 0 in
05:52 59.5 °F 55.9 °F 30.1 in Calm   2 mph 88 % 0 in
05:57 59.4 °F 55.8 °F 30.1 in Calm   1 mph 88 % 0 in
06:02 59.4 °F 55.8 °F 30.1 in Calm   1 mph 88 % 0 in
06:12 59.2 °F 55.6 °F 30.1 in Calm     88 % 0 in
06:17 59.2 °F 55.6 °F 30.1 in Calm     88 % 0 in
06:22 58.8 °F 55.2 °F 30.1 in Calm     88 % 0 in
06:32 58.3 °F 55 °F 30.1 in Calm     89 % 0 in
06:42 58.5 °F 55.6 °F 30.1 in Calm     90 % 0 in
06:52 58.5 °F 55.6 °F 30.1 in Calm     90 % 0 in
07:02 58.3 °F 55.4 °F 30.1 in North 1 mph   90 % 0 in
07:12 58.1 °F 55.2 °F 30.1 in Calm   2 mph 90 % 0 in
07:17 58.3 °F 55.4 °F 30.1 in Calm   2 mph 90 % 0 in
07:22 58.3 °F 55.4 °F 30.1 in Calm   2 mph 90 % 0 in
07:32 58.6 °F 55.8 °F 30.1 in Calm   1 mph 90 % 0 in
07:42 59.2 °F 55.9 °F 30.1 in Calm   1 mph 89 % 0 in
07:52 59.7 °F 56.1 °F 30.1 in Calm   1 mph 88 % 0 in
08:02 60.4 °F 56.8 °F 30.1 in Calm   1 mph 88 % 0 in
08:12 61.5 °F 57.4 °F 30.1 in NNE 1 mph 1 mph 86 % 0 in
08:17 61.5 °F 57 °F 30.1 in NNE 2 mph 2 mph 85 % 0 in
08:22 61.9 °F 57 °F 30.1 in NE 2 mph 2 mph 84 % 0 in
08:32 63 °F 57 °F 30.1 in NNE 1 mph 3 mph 81 % 0 in
08:42 64 °F 57 °F 30.1 in ENE 2 mph 3 mph 78 % 0 in
08:47 64.4 °F 57.4 °F 30.1 in NE 1 mph 4 mph 78 % 0 in
08:52 64.8 °F 57.7 °F 30.1 in Calm   4 mph 78 % 0 in
09:02 65.5 °F 58.1 °F 30.1 in NE 4 mph 4 mph 77 % 0 in
09:12 66.2 °F 58.1 °F 30.1 in East 4 mph 5 mph 75 % 0 in
09:17 66.6 °F 58.5 °F 30.1 in East 1 mph 5 mph 75 % 0 in
09:22 66.9 °F 58.3 °F 30.1 in East 1 mph 5 mph 74 % 0 in
09:32 68.2 °F 58.8 °F 30.1 in SSE 3 mph 4 mph 72 % 0 in
09:42 70 °F 57.7 °F 30.1 in East 2 mph 6 mph 65 % 0 in
09:52 70.9 °F 57.7 °F 30.1 in Calm   6 mph 63 % 0 in
10:02 71.2 °F 57.9 °F 30.1 in ENE 2 mph 6 mph 63 % 0 in
10:12 72.3 °F 58.6 °F 30.1 in Calm   7 mph 62 % 0 in
10:22 73 °F 59.2 °F 30.1 in ESE 1 mph 8 mph 62 % 0 in
10:27 73.2 °F 58.5 °F 30.1 in South 3 mph 8 mph 60 % 0 in
10:37 73.9 °F 59.7 °F 30.1 in SSE 1 mph 6 mph 61 % 0 in
10:42 74.5 °F 59.7 °F 30.1 in ENE 1 mph 6 mph 60 % 0 in
10:47 75 °F 59.7 °F 30.1 in SSE 2 mph 5 mph 59 % 0 in
10:57 75.4 °F 59 °F 30.1 in SE 1 mph 5 mph 57 % 0 in
11:02 75.9 °F 59.2 °F 30.1 in NNE 3 mph 5 mph 56 % 0 in
11:12 76.3 °F 59 °F 30.1 in East 2 mph 6 mph 55 % 0 in
11:17 76.5 °F 58.6 °F 30.1 in NE 5 mph 8 mph 54 % 0 in
11:22 76.6 °F 59.2 °F 30.1 in East 5 mph 8 mph 55 % 0 in
11:32 76.8 °F 58.5 °F 30.1 in ESE 4 mph 8 mph 53 % 0 in
11:42 77.9 °F 59.4 °F 30.1 in ESE 1 mph 8 mph 53 % 0 in
11:52 78.4 °F 58.8 °F 30.1 in SE 8 mph 8 mph 51 % 0 in
12:02 79 °F 58.8 °F 30.1 in East 4 mph 9 mph 50 % 0 in
12:07 79.3 °F 59.7 °F 30.1 in NE 2 mph 9 mph 51 % 0 in
12:12 79 °F 59.4 °F 30.1 in SE 2 mph 9 mph 51 % 0 in
12:17 79 °F 58.8 °F 30.1 in East 6 mph 9 mph 50 % 0 in
12:27 78.4 °F 58.3 °F 30.1 in ENE 3 mph 9 mph 50 % 0 in
12:32 79 °F 58.1 °F 30.1 in ENE 5 mph 9 mph 49 % 0 in
12:42 79.7 °F 58.8 °F 30.1 in ESE 1 mph 9 mph 49 % 0 in
12:47 80.2 °F 59.9 °F 30.1 in East 1 mph 9 mph 50 % 0 in
12:52 80.2 °F 58.8 °F 30.1 in SW 1 mph 9 mph 48 % 0 in
13:02 80.8 °F 59.2 °F 30.1 in East 5 mph 7 mph 48 % 0 in
13:12 80.4 °F 58.3 °F 30.1 in Calm   7 mph 47 % 0 in
13:17 80.6 °F 59.7 °F 30.1 in SSE 3 mph 9 mph 49 % 0 in
13:22 81 °F 60.1 °F 30.1 in East 5 mph 9 mph 49 % 0 in
13:32 81.7 °F 60.6 °F 30.1 in Calm   7 mph 49 % 0 in
13:42 81.7 °F 59.5 °F 30.1 in East 6 mph 9 mph 47 % 0 in
13:52 81 °F 59.4 °F 30.1 in ENE 5 mph 8 mph 48 % 0 in
14:02 82 °F 59.2 °F 30.1 in ENE 5 mph 10 mph 46 % 0 in
14:07 82.2 °F 60.6 °F 30.1 in NNE 7 mph 12 mph 48 % 0 in
14:12 81.9 °F 60.3 °F 30.1 in East 2 mph 12 mph 48 % 0 in
14:17 82.2 °F 59.9 °F 30.1 in ENE 12 mph 12 mph 47 % 0 in
14:22 82 °F 60.4 °F 30.1 in ESE 2 mph 11 mph 48 % 0 in
14:32 83.1 °F 60.3 °F 30.1 in ENE 5 mph 13 mph 46 % 0 in
14:42 82.8 °F 60.4 °F 30.1 in NE 7 mph 12 mph 47 % 0 in
14:47 82.8 °F 60.4 °F 30.1 in ENE 9 mph 13 mph 47 % 0 in
14:52 83.1 °F 60.3 °F 30.1 in East 5 mph 13 mph 46 % 0 in
14:57 83.1 °F 60.3 °F 30.1 in East 3 mph 13 mph 46 % 0 in
15:02 83.7 °F 60.1 °F 30.1 in East 6 mph 13 mph 45 % 0 in
15:07 84 °F 59.7 °F 30.1 in SE 2 mph 12 mph 44 % 0 in
15:12 84 °F 59.7 °F 30.1 in ENE 7 mph 12 mph 44 % 0 in
15:22 84 °F 59.7 °F 30.1 in ENE 3 mph 10 mph 44 % 0 in
15:27 84.4 °F 60.8 °F 30.1 in ENE 8 mph 10 mph 45 % 0 in
15:32 84.4 °F 60.1 °F 30.1 in ENE 6 mph 10 mph 44 % 0 in
15:42 84.4 °F 59.4 °F 30.1 in ENE 5 mph 10 mph 43 % 0 in
15:47 84.6 °F 60.3 °F 30 in East 7 mph 12 mph 44 % 0 in
15:52 84.7 °F 59.7 °F 30 in ESE 1 mph 12 mph 43 % 0 in
15:57 85.3 °F 60.3 °F 30 in NE 4 mph 10 mph 43 % 0 in
16:02 85.6 °F 60.6 °F 30 in ENE 6 mph 10 mph 43 % 0 in
16:12 85.8 °F 60.8 °F 30 in ENE 6 mph 10 mph 43 % 0 in
16:22 85.8 °F 60.1 °F 30 in East 5 mph 8 mph 42 % 0 in
16:32 85.8 °F 59.4 °F 30 in East 4 mph 9 mph 41 % 0 in
16:42 85.8 °F 60.1 °F 30 in SE 3 mph 11 mph 42 % 0 in
16:47 86.2 °F 60.4 °F 30 in ENE 2 mph 10 mph 42 % 0 in
16:52 86.5 °F 60.8 °F 30 in ESE 7 mph 10 mph 42 % 0 in
16:57 86.2 °F 59.7 °F 30 in East 3 mph 13 mph 41 % 0 in
17:02 86.5 °F 60.1 °F 30 in ENE 2 mph 13 mph 41 % 0 in
17:12 86.5 °F 60.1 °F 30 in Calm   9 mph 41 % 0 in
17:17 86.5 °F 60.1 °F 30 in East 6 mph 7 mph 41 % 0 in
17:22 85.8 °F 59.4 °F 30 in ENE 3 mph 7 mph 41 % 0 in
17:27 85.6 °F 59.9 °F 30 in ESE 3 mph 7 mph 42 % 0 in
17:37 85.5 °F 60.4 °F 30 in Calm   6 mph 43 % 0 in
17:42 85.6 °F 59.9 °F 30 in ENE 3 mph 6 mph 42 % 0 in
17:47 85.8 °F 59.4 °F 30 in ENE 2 mph 6 mph 41 % 0 in
17:52 85.8 °F 60.1 °F 30 in ENE 1 mph 6 mph 42 % 0 in
17:57 86.5 °F 60.8 °F 30 in ENE 4 mph 6 mph 42 % 0 in
18:02 86.4 °F 59.9 °F 30 in ENE 6 mph 6 mph 41 % 0 in
18:12 85.8 °F 59.4 °F 30 in ENE 4 mph 7 mph 41 % 0 in
18:17 85.5 °F 59.7 °F 30 in ENE 5 mph 8 mph 42 % 0 in
18:22 85.1 °F 60.1 °F 30 in East 1 mph 8 mph 43 % 0 in
18:27 84.9 °F 59.9 °F 30 in East 5 mph 8 mph 43 % 0 in
18:32 84.9 °F 59.9 °F 30 in East 3 mph 7 mph 43 % 0 in
18:37 84.9 °F 59.9 °F 30 in East 3 mph 7 mph 43 % 0 in
18:42 84.9 °F 60.6 °F 30 in ENE 2 mph 8 mph 44 % 0 in
18:52 84.6 °F 60.3 °F 30 in East 2 mph 6 mph 44 % 0 in
18:57 84.4 °F 60.1 °F 30 in East 4 mph 7 mph 44 % 0 in
19:02 84.2 °F 59.9 °F 30 in East 2 mph 7 mph 44 % 0 in
19:12 83.8 °F 60.3 °F 30 in ENE 2 mph 6 mph 45 % 0 in
19:17 83.7 °F 60.1 °F 30 in ENE 2 mph 5 mph 45 % 0 in
19:22 83.7 °F 60.6 °F 30 in East 3 mph 5 mph 46 % 0 in
19:27 83.5 °F 60.4 °F 30 in East 3 mph 5 mph 46 % 0 in
19:32 83.5 °F 60.4 °F 30 in Calm   5 mph 46 % 0 in
19:37 83.3 °F 60.4 °F 30 in ENE 2 mph 5 mph 46 % 0 in
19:42 83.1 °F 60.3 °F 30 in ENE 4 mph 5 mph 46 % 0 in
19:47 83.3 °F 60.4 °F 30 in ENE 3 mph 6 mph 46 % 0 in
19:52 83.3 °F 60.4 °F 30 in Calm   6 mph 46 % 0 in
19:57 83.5 °F 60.4 °F 30 in ENE 2 mph 7 mph 46 % 0 in
20:02 83.3 °F 60.4 °F 30 in East 1 mph 7 mph 46 % 0 in
20:12 82.9 °F 60.1 °F 30 in ENE 1 mph 5 mph 46 % 0 in
20:17 82.8 °F 60.4 °F 30 in East 1 mph 5 mph 47 % 0 in
20:22 82 °F 60.4 °F 30 in East 2 mph 5 mph 48 % 0 in
20:32 81 °F 61.2 °F 30 in NE 1 mph 3 mph 51 % 0 in
20:37 80.8 °F 61.5 °F 30 in ENE 2 mph 4 mph 52 % 0 in
20:42 80.2 °F 62.1 °F 30 in NE 5 mph 5 mph 54 % 0 in
20:52 79.2 °F 61.5 °F 30 in NE 2 mph 5 mph 55 % 0 in
21:02 78.3 °F 61.7 °F 30 in Calm   5 mph 57 % 0 in
21:07 77.5 °F 61.5 °F 30 in Calm   3 mph 58 % 0 in
21:17 77.2 °F 62.2 °F 30 in NW 1 mph 2 mph 60 % 0 in
21:22 76.5 °F 62.1 °F 30 in Calm   2 mph 61 % 0 in
21:32 75.9 °F 61.9 °F 30 in Calm   1 mph 62 % 0 in
21:37 75.4 °F 61.9 °F 30 in NNW 1 mph 1 mph 63 % 0 in
21:42 75 °F 62.1 °F 30 in North 1 mph 1 mph 64 % 0 in
21:47 74.8 °F 61.9 °F 30 in Calm   2 mph 64 % 0 in
21:52 74.7 °F 62.1 °F 30 in NNW 1 mph 2 mph 65 % 0 in
22:02 73.6 °F 61.9 °F 30 in WNW 1 mph 2 mph 67 % 0 in
22:12 73.9 °F 61.9 °F 30 in Calm   2 mph 66 % 0 in
22:17 73.6 °F 61.9 °F 30 in WNW 1 mph 2 mph 67 % 0 in
22:22 72.7 °F 61.5 °F 30 in WNW 1 mph 2 mph 68 % 0 in
22:32 73 °F 61.5 °F 30 in Calm   2 mph 67 % 0 in
22:37 72.9 °F 61.7 °F 30 in WNW 1 mph 3 mph 68 % 0 in
22:42 72 °F 62.1 °F 30 in WNW 1 mph 3 mph 71 % 0 in
22:47 71.8 °F 61.5 °F 30 in NW 1 mph 2 mph 70 % 0 in
22:52 72.1 °F 61.3 °F 30 in NW 1 mph 2 mph 69 % 0 in
22:57 72.7 °F 61.5 °F 30 in North 2 mph 2 mph 68 % 0 in
23:02 72.3 °F 61.2 °F 30 in North 1 mph 2 mph 68 % 0 in
23:12 72.9 °F 61.3 °F 30 in Calm   2 mph 67 % 0 in
23:17 72.1 °F 61.3 °F 30 in WNW 1 mph 2 mph 69 % 0 in
23:22 71.2 °F 61.7 °F 30 in WNW 2 mph 2 mph 72 % 0 in
23:27 70.9 °F 61.9 °F 30 in WNW 1 mph 2 mph 73 % 0 in
23:32 70.3 °F 61.3 °F 30 in WNW 1 mph 2 mph 73 % 0 in
23:42 70.9 °F 61.3 °F 30 in Calm   2 mph 72 % 0 in
23:47 71.1 °F 61.5 °F 30 in Calm   1 mph 72 % 0 in
23:52 71.1 °F 61.5 °F 30 in Calm   1 mph 72 % 0 in
23:57 70.3 °F 61.3 °F 30 in Calm   1 mph 73 % 0 in
Meteo18
Compliments of Weather Underground - 4 mb

Script developed by  Jim McMurry - jmcmurry@mwt.net Adapted for the template by  Wim van der Kuil - Leuven-Template.eu

You find our weather info also at:

European Weather Network

Weather Underground

Equipment we use:

Weather-station
Davis Vue

Weather-program
Meteohub

Weather-server
Raspberry PI 2 B+

Provider
1 and 1

Davis Vue

Meteohub

Raspberry PI 2 B+

1 and 1